createdAt,value
2017-07-03T00:00:16.135Z,0
2017-07-03T00:01:15.826Z,0
2017-07-03T00:02:16.106Z,0
2017-07-03T00:03:15.865Z,0
2017-07-03T00:04:15.515Z,0
2017-07-03T00:05:15.756Z,0
2017-07-03T00:06:15.881Z,0
2017-07-03T00:07:15.720Z,0
2017-07-03T00:08:16.043Z,0
2017-07-03T00:09:15.766Z,0
2017-07-03T00:10:15.670Z,0
2017-07-03T00:11:15.635Z,0
2017-07-03T00:12:15.416Z,0
2017-07-03T00:13:15.653Z,0
2017-07-03T00:14:15.923Z,0
2017-07-03T00:15:15.583Z,0
2017-07-03T00:16:15.562Z,0
2017-07-03T00:17:15.249Z,0
2017-07-03T00:18:15.866Z,0
2017-07-03T00:19:15.824Z,0
2017-07-03T00:20:15.803Z,0
2017-07-03T00:21:15.479Z,0
2017-07-03T00:22:15.765Z,0
2017-07-03T00:23:15.445Z,0
2017-07-03T00:24:15.763Z,0
2017-07-03T00:25:15.734Z,0
2017-07-03T00:26:15.386Z,0
2017-07-03T00:27:15.395Z,0
2017-07-03T00:28:15.058Z,0
2017-07-03T00:29:15.665Z,0
2017-07-03T00:30:15.652Z,0
2017-07-03T00:31:15.294Z,0
2017-07-03T00:32:15.292Z,0
2017-07-03T00:33:15.576Z,0
2017-07-03T00:34:14.949Z,0
2017-07-03T00:35:15.533Z,0
2017-07-03T00:36:14.952Z,0
2017-07-03T00:37:15.285Z,0
2017-07-03T00:38:14.901Z,0
2017-07-03T00:39:14.857Z,0
2017-07-03T00:40:15.472Z,0
2017-07-03T00:41:15.443Z,0
2017-07-03T00:42:14.826Z,0
2017-07-03T00:43:14.483Z,0
2017-07-03T00:44:15.423Z,0
2017-07-03T00:45:15.365Z,0
2017-07-03T00:46:14.803Z,0
2017-07-03T00:47:14.725Z,0
2017-07-03T00:48:14.705Z,0
2017-07-03T00:49:14.996Z,0
2017-07-03T00:50:14.365Z,0
2017-07-03T00:51:14.663Z,0
2017-07-03T00:52:15.254Z,0
2017-07-03T00:53:15.263Z,0
2017-07-03T00:54:14.910Z,0
2017-07-03T00:55:14.908Z,0
2017-07-03T00:56:15.184Z,0
2017-07-03T00:57:14.584Z,0
2017-07-03T00:58:14.530Z,0
2017-07-03T00:59:14.821Z,0
2017-07-03T01:00:15.166Z,0
2017-07-03T01:01:15.104Z,0
2017-07-03T01:02:14.466Z,0
2017-07-03T01:03:14.776Z,0
2017-07-03T01:04:14.436Z,0
2017-07-03T01:05:14.713Z,0
2017-07-03T01:06:14.398Z,0
2017-07-03T01:07:14.683Z,0
2017-07-03T01:08:14.685Z,0
2017-07-03T01:09:14.652Z,0
2017-07-03T01:10:14.647Z,0
2017-07-03T01:11:14.615Z,0
2017-07-03T01:12:14.916Z,0
2017-07-03T01:13:14.602Z,0
2017-07-03T01:14:14.566Z,0
2017-07-03T01:15:14.575Z,0
2017-07-03T01:16:14.536Z,0
2017-07-03T01:17:14.825Z,0
2017-07-03T01:18:14.204Z,0
2017-07-03T01:19:14.520Z,0
2017-07-03T01:20:14.777Z,0
2017-07-03T01:21:14.449Z,0
2017-07-03T01:22:14.734Z,0
2017-07-03T01:23:14.723Z,0
2017-07-03T01:24:14.719Z,0
2017-07-03T01:25:14.375Z,0
2017-07-03T01:26:14.375Z,0
2017-07-03T01:27:13.786Z,0
2017-07-03T01:28:14.335Z,0
2017-07-03T01:29:14.616Z,0
2017-07-03T01:30:13.983Z,0
2017-07-03T01:31:14.586Z,0
2017-07-03T01:32:14.246Z,0
2017-07-03T01:33:14.554Z,0
2017-07-03T01:34:14.525Z,0
2017-07-03T01:35:14.506Z,0
2017-07-03T01:36:14.198Z,0
2017-07-03T01:37:14.498Z,0
2017-07-03T01:38:14.167Z,0
2017-07-03T01:39:14.128Z,0
2017-07-03T01:40:13.844Z,0
2017-07-03T01:41:14.090Z,0
2017-07-03T01:42:14.116Z,0
2017-07-03T01:43:14.369Z,0
2017-07-03T01:44:14.099Z,0
2017-07-03T01:45:14.053Z,0
2017-07-03T01:46:14.008Z,0
2017-07-03T01:47:13.997Z,0
2017-07-03T01:48:14.278Z,0
2017-07-03T01:49:13.963Z,0
2017-07-03T01:50:14.245Z,0
2017-07-03T01:51:14.215Z,0
2017-07-03T01:52:14.204Z,0
2017-07-03T01:53:13.569Z,0
2017-07-03T01:54:13.557Z,0
2017-07-03T01:55:13.869Z,0
2017-07-03T01:56:13.829Z,0
2017-07-03T01:57:13.836Z,0
2017-07-03T01:58:13.817Z,0
2017-07-03T01:59:13.797Z,0
2017-07-03T02:00:13.476Z,0
2017-07-03T02:01:14.134Z,0
2017-07-03T02:02:14.072Z,0
2017-07-03T02:03:14.114Z,0
2017-07-03T02:04:14.006Z,0
2017-07-03T02:05:13.701Z,0
2017-07-03T02:06:13.649Z,0
2017-07-03T02:07:13.648Z,0
2017-07-03T02:08:13.787Z,0
2017-07-03T02:09:13.286Z,0
2017-07-03T02:10:13.957Z,0
2017-07-03T02:11:13.581Z,0
2017-07-03T02:12:13.288Z,0
2017-07-03T02:13:13.603Z,0
2017-07-03T02:14:13.569Z,0
2017-07-03T02:15:13.195Z,0
2017-07-03T02:16:13.470Z,0
2017-07-03T02:17:13.759Z,0
2017-07-03T02:18:13.447Z,0
2017-07-03T02:19:13.737Z,0
2017-07-03T02:20:13.196Z,0
2017-07-03T02:21:13.418Z,0
2017-07-03T02:22:13.127Z,0
2017-07-03T02:23:13.697Z,0
2017-07-03T02:24:13.342Z,0
2017-07-03T02:25:13.436Z,0
2017-07-03T02:26:13.282Z,0
2017-07-03T02:27:12.963Z,0
2017-07-03T02:28:13.266Z,0
2017-07-03T02:29:13.245Z,0
2017-07-03T02:30:13.549Z,0
2017-07-03T02:31:13.205Z,0
2017-07-03T02:32:12.881Z,0
2017-07-03T02:33:13.573Z,0
2017-07-03T02:34:13.176Z,0
2017-07-03T02:35:13.494Z,4
2017-07-03T02:36:13.443Z,4
2017-07-03T02:37:13.177Z,0
2017-07-03T02:38:13.094Z,0
2017-07-03T02:39:13.093Z,4
2017-07-03T02:40:13.056Z,4
2017-07-03T02:41:12.403Z,4
2017-07-03T02:42:13.001Z,0
2017-07-03T02:43:13.390Z,4
2017-07-03T02:44:13.283Z,4
2017-07-03T02:45:12.336Z,4
2017-07-03T02:46:12.670Z,8
2017-07-03T02:47:12.617Z,4
2017-07-03T02:48:12.901Z,8
2017-07-03T02:49:13.195Z,8
2017-07-03T02:50:12.558Z,8
2017-07-03T02:51:12.529Z,8
2017-07-03T02:52:13.133Z,12
2017-07-03T02:53:12.820Z,12
2017-07-03T02:54:12.489Z,12
2017-07-03T02:55:12.842Z,16
2017-07-03T02:56:12.805Z,16
2017-07-03T02:57:13.041Z,16
2017-07-03T02:58:12.713Z,24
2017-07-03T02:59:12.421Z,24
2017-07-03T03:00:12.687Z,28
2017-07-03T03:01:12.361Z,32
2017-07-03T03:02:12.666Z,32
2017-07-03T03:03:12.416Z,40
2017-07-03T03:04:12.653Z,40
2017-07-03T03:05:12.912Z,44
2017-07-03T03:06:12.262Z,48
2017-07-03T03:07:12.953Z,52
2017-07-03T03:08:12.535Z,60
2017-07-03T03:09:12.529Z,68
2017-07-03T03:10:12.196Z,72
2017-07-03T03:11:12.177Z,80
2017-07-03T03:12:12.503Z,84
2017-07-03T03:13:12.454Z,92
2017-07-03T03:14:12.784Z,100
2017-07-03T03:15:12.483Z,104
2017-07-03T03:16:12.085Z,116
2017-07-03T03:17:12.142Z,124
2017-07-03T03:18:12.268Z,132
2017-07-03T03:19:12.341Z,140
2017-07-03T03:20:12.368Z,152
2017-07-03T03:21:12.625Z,164
2017-07-03T03:22:11.973Z,176
2017-07-03T03:23:11.702Z,184
2017-07-03T03:24:12.244Z,196
2017-07-03T03:25:12.276Z,212
2017-07-03T03:26:12.530Z,220
2017-07-03T03:27:12.227Z,236
2017-07-03T03:28:12.534Z,248
2017-07-03T03:29:11.927Z,260
2017-07-03T03:30:12.525Z,276
2017-07-03T03:31:11.520Z,288
2017-07-03T03:32:12.122Z,304
2017-07-03T03:33:11.915Z,316
2017-07-03T03:34:12.392Z,332
2017-07-03T03:35:12.074Z,348
2017-07-03T03:36:12.174Z,364
2017-07-03T03:37:11.764Z,380
2017-07-03T03:38:12.303Z,396
2017-07-03T03:39:12.002Z,412
2017-07-03T03:40:12.332Z,424
2017-07-03T03:41:11.927Z,440
2017-07-03T03:42:12.324Z,460
2017-07-03T03:43:12.219Z,472
2017-07-03T03:44:12.274Z,492
2017-07-03T03:45:11.870Z,504
2017-07-03T03:46:12.254Z,524
2017-07-03T03:47:12.134Z,540
2017-07-03T03:48:12.164Z,556
2017-07-03T03:49:12.197Z,568
2017-07-03T03:50:11.472Z,588
2017-07-03T03:51:11.762Z,604
2017-07-03T03:52:11.723Z,620
2017-07-03T03:53:12.040Z,632
2017-07-03T03:54:11.722Z,652
2017-07-03T03:55:11.683Z,664
2017-07-03T03:56:11.054Z,680
2017-07-03T03:57:11.324Z,700
2017-07-03T03:58:11.707Z,712
2017-07-03T03:59:11.916Z,724
2017-07-03T04:00:11.584Z,744
2017-07-03T04:01:11.973Z,760
2017-07-03T04:02:11.560Z,772
2017-07-03T04:03:11.243Z,792
2017-07-03T04:04:11.203Z,804
2017-07-03T04:05:11.489Z,820
2017-07-03T04:06:11.827Z,836
2017-07-03T04:07:11.814Z,848
2017-07-03T04:08:11.432Z,864
2017-07-03T04:09:11.426Z,880
2017-07-03T04:10:11.744Z,896
2017-07-03T04:11:11.794Z,908
2017-07-03T04:12:11.351Z,924
2017-07-03T04:13:11.041Z,940
2017-07-03T04:14:11.334Z,952
2017-07-03T04:15:11.671Z,968
2017-07-03T04:16:11.600Z,984
2017-07-03T04:17:10.963Z,996
2017-07-03T04:18:11.270Z,1008
2017-07-03T04:19:11.573Z,1028
2017-07-03T04:20:10.598Z,1036
2017-07-03T04:21:10.890Z,1052
2017-07-03T04:22:11.171Z,1068
2017-07-03T04:23:11.152Z,1080
2017-07-03T04:24:10.844Z,1096
2017-07-03T04:25:11.433Z,1108
2017-07-03T04:26:10.802Z,1120
2017-07-03T04:27:11.092Z,1136
2017-07-03T04:28:11.058Z,1152
2017-07-03T04:29:11.041Z,1164
2017-07-03T04:30:11.024Z,1180
2017-07-03T04:31:11.321Z,1196
2017-07-03T04:32:10.977Z,1208
2017-07-03T04:33:10.394Z,1224
2017-07-03T04:34:10.635Z,1236
2017-07-03T04:35:11.231Z,1248
2017-07-03T04:36:11.227Z,1264
2017-07-03T04:37:11.258Z,1276
2017-07-03T04:38:10.883Z,1292
2017-07-03T04:39:10.572Z,1300
2017-07-03T04:40:11.149Z,1320
2017-07-03T04:41:10.218Z,1332
2017-07-03T04:42:11.195Z,1352
2017-07-03T04:43:10.833Z,1364
2017-07-03T04:44:10.782Z,1380
2017-07-03T04:45:10.454Z,1388
2017-07-03T04:46:10.446Z,1404
2017-07-03T04:47:10.732Z,1420
2017-07-03T04:48:10.702Z,1432
2017-07-03T04:49:11.086Z,1444
2017-07-03T04:50:10.978Z,1456
2017-07-03T04:51:10.332Z,1472
2017-07-03T04:52:10.931Z,1484
2017-07-03T04:53:10.666Z,1492
2017-07-03T04:54:10.911Z,1508
2017-07-03T04:55:10.902Z,1520
2017-07-03T04:56:10.574Z,1536
2017-07-03T04:57:10.591Z,1556
2017-07-03T04:58:10.294Z,1568
2017-07-03T04:59:10.497Z,1580
2017-07-03T05:00:10.481Z,1600
2017-07-03T05:01:10.771Z,1612
2017-07-03T05:02:10.761Z,1624
2017-07-03T05:03:09.811Z,1636
2017-07-03T05:04:10.457Z,1656
2017-07-03T05:05:10.384Z,1672
2017-07-03T05:06:10.373Z,1684
2017-07-03T05:07:10.057Z,1704
2017-07-03T05:08:10.358Z,1716
2017-07-03T05:09:10.612Z,1732
2017-07-03T05:10:10.366Z,1752
2017-07-03T05:11:10.293Z,1772
2017-07-03T05:12:09.977Z,1784
2017-07-03T05:13:10.358Z,1800
2017-07-03T05:14:09.912Z,1816
2017-07-03T05:15:09.894Z,1824
2017-07-03T05:16:09.865Z,1840
2017-07-03T05:17:10.527Z,1872
2017-07-03T05:18:09.941Z,1888
2017-07-03T05:19:10.132Z,1892
2017-07-03T05:20:10.101Z,1904
2017-07-03T05:21:10.410Z,1920
2017-07-03T05:22:09.783Z,1936
2017-07-03T05:23:10.101Z,1948
2017-07-03T05:24:10.105Z,1968
2017-07-03T05:25:09.722Z,1980
2017-07-03T05:26:10.009Z,1988
2017-07-03T05:27:09.988Z,2000
2017-07-03T05:28:09.974Z,2012
2017-07-03T05:29:10.260Z,2028
2017-07-03T05:30:10.234Z,2044
2017-07-03T05:31:10.226Z,2056
2017-07-03T05:32:09.583Z,2064
2017-07-03T05:33:09.907Z,2068
2017-07-03T05:34:09.872Z,2084
2017-07-03T05:35:09.532Z,2092
2017-07-03T05:36:09.826Z,2104
2017-07-03T05:37:09.801Z,2116
2017-07-03T05:38:09.483Z,2120
2017-07-03T05:39:09.840Z,2140
2017-07-03T05:40:09.752Z,2152
2017-07-03T05:41:09.732Z,2152
2017-07-03T05:42:09.412Z,2168
2017-07-03T05:43:10.014Z,2180
2017-07-03T05:44:09.680Z,2180
2017-07-03T05:45:09.652Z,2208
2017-07-03T05:46:09.960Z,2220
2017-07-03T05:47:09.680Z,2228
2017-07-03T05:48:09.605Z,2244
2017-07-03T05:49:09.907Z,2256
2017-07-03T05:50:09.582Z,2272
2017-07-03T05:51:09.582Z,2288
2017-07-03T05:52:09.842Z,2284
2017-07-03T05:53:09.508Z,2308
2017-07-03T05:54:09.201Z,2320
2017-07-03T05:55:09.471Z,2320
2017-07-03T05:56:09.465Z,2332
2017-07-03T05:57:09.445Z,2344
2017-07-03T05:58:09.431Z,2352
2017-07-03T05:59:09.420Z,2356
2017-07-03T06:00:09.390Z,2380
2017-07-03T06:01:09.690Z,2404
2017-07-03T06:02:09.899Z,2420
2017-07-03T06:03:09.351Z,2420
2017-07-03T06:04:09.642Z,2420
2017-07-03T06:05:09.288Z,2424
2017-07-03T06:06:09.611Z,2436
2017-07-03T06:07:09.270Z,2432
2017-07-03T06:08:09.575Z,2456
2017-07-03T06:09:09.541Z,2456
2017-07-03T06:10:09.211Z,2468
2017-07-03T06:11:09.508Z,2480
2017-07-03T06:12:09.170Z,2528
2017-07-03T06:13:08.873Z,2552
2017-07-03T06:14:09.472Z,2556
2017-07-03T06:15:09.427Z,2616
2017-07-03T06:16:09.119Z,2632
2017-07-03T06:17:08.788Z,2636
2017-07-03T06:18:09.387Z,2632
2017-07-03T06:19:08.446Z,2688
2017-07-03T06:20:09.031Z,2704
2017-07-03T06:21:09.329Z,2724
2017-07-03T06:22:09.310Z,2772
2017-07-03T06:23:08.988Z,2776
2017-07-03T06:24:09.291Z,2812
2017-07-03T06:25:08.950Z,2800
2017-07-03T06:26:09.241Z,2828
2017-07-03T06:27:08.929Z,2832
2017-07-03T06:28:08.908Z,2856
2017-07-03T06:29:09.198Z,2868
2017-07-03T06:30:09.169Z,2908
2017-07-03T06:31:09.182Z,2900
2017-07-03T06:32:09.131Z,2924
2017-07-03T06:33:08.815Z,2932
2017-07-03T06:34:09.101Z,2932
2017-07-03T06:35:09.101Z,2984
2017-07-03T06:36:08.152Z,2996
2017-07-03T06:37:08.460Z,3012
2017-07-03T06:38:08.719Z,3020
2017-07-03T06:39:08.400Z,3040
2017-07-03T06:40:08.990Z,3048
2017-07-03T06:41:08.988Z,3084
2017-07-03T06:42:08.660Z,3120
2017-07-03T06:43:08.643Z,3140
2017-07-03T06:44:08.939Z,3160
2017-07-03T06:45:08.301Z,3160
2017-07-03T06:46:08.398Z,3200
2017-07-03T06:47:08.587Z,3216
2017-07-03T06:48:08.681Z,3224
2017-07-03T06:49:08.539Z,3240
2017-07-03T06:50:08.233Z,3284
2017-07-03T06:51:08.526Z,3336
2017-07-03T06:52:08.802Z,3376
2017-07-03T06:53:08.800Z,3408
2017-07-03T06:54:08.779Z,3476
2017-07-03T06:55:08.131Z,3520
2017-07-03T06:56:08.727Z,3548
2017-07-03T06:57:08.416Z,3548
2017-07-03T06:58:08.699Z,3604
2017-07-03T06:59:08.469Z,3636
2017-07-03T07:00:08.194Z,3684
2017-07-03T07:01:07.729Z,3724
2017-07-03T07:02:08.339Z,3844
2017-07-03T07:03:08.627Z,3952
2017-07-03T07:04:08.280Z,3992
2017-07-03T07:05:08.321Z,4032
2017-07-03T07:06:08.579Z,4032
2017-07-03T07:07:08.257Z,4084
2017-07-03T07:08:07.630Z,4164
2017-07-03T07:09:08.205Z,4308
2017-07-03T07:10:08.537Z,4408
2017-07-03T07:11:07.978Z,4508
2017-07-03T07:12:08.204Z,4672
2017-07-03T07:13:08.212Z,4764
2017-07-03T07:14:08.444Z,5056
2017-07-03T07:15:08.108Z,5288
2017-07-03T07:16:08.108Z,5256
2017-07-03T07:17:08.372Z,5328
2017-07-03T07:18:08.379Z,5776
2017-07-03T07:19:08.077Z,6432
2017-07-03T07:20:08.109Z,7036
2017-07-03T07:21:08.351Z,7504
2017-07-03T07:22:07.696Z,7772
2017-07-03T07:23:08.025Z,7992
2017-07-03T07:24:08.025Z,8040
2017-07-03T07:25:07.664Z,8208
2017-07-03T07:26:07.961Z,8456
2017-07-03T07:27:07.973Z,8840
2017-07-03T07:28:07.920Z,8744
2017-07-03T07:29:08.189Z,8728
2017-07-03T07:30:08.191Z,8500
2017-07-03T07:31:07.990Z,8712
2017-07-03T07:32:08.170Z,9016
2017-07-03T07:33:07.830Z,9180
2017-07-03T07:34:07.810Z,9272
2017-07-03T07:35:07.872Z,8816
2017-07-03T07:36:07.488Z,8436
2017-07-03T07:37:07.477Z,7836
2017-07-03T07:38:07.444Z,7304
2017-07-03T07:39:07.738Z,7004
2017-07-03T07:40:08.761Z,6820
2017-07-03T07:41:08.050Z,6640
2017-07-03T07:42:07.719Z,6596
2017-07-03T07:43:08.015Z,6580
2017-07-03T07:44:07.701Z,6468
2017-07-03T07:45:07.335Z,6328
2017-07-03T07:46:07.934Z,6208
2017-07-03T07:47:07.326Z,6044
2017-07-03T07:48:07.953Z,5888
2017-07-03T07:49:07.577Z,5720
2017-07-03T07:50:07.560Z,5684
2017-07-03T07:51:07.255Z,5544
2017-07-03T07:52:07.564Z,5516
2017-07-03T07:53:07.841Z,5528
2017-07-03T07:54:07.245Z,5512
2017-07-03T07:55:07.485Z,5592
2017-07-03T07:56:07.483Z,5556
2017-07-03T07:57:07.175Z,5672
2017-07-03T07:58:07.458Z,5668
2017-07-03T07:59:07.801Z,5664
2017-07-03T08:00:07.757Z,5892
2017-07-03T08:01:07.418Z,5904
2017-07-03T08:02:07.712Z,6032
2017-07-03T08:03:06.778Z,6276
2017-07-03T08:04:07.714Z,6336
2017-07-03T08:05:07.762Z,6188
2017-07-03T08:06:07.342Z,6156
2017-07-03T08:07:07.348Z,6012
2017-07-03T08:08:07.294Z,6044
2017-07-03T08:09:07.287Z,6128
2017-07-03T08:10:07.591Z,6160
2017-07-03T08:11:07.278Z,6152
2017-07-03T08:12:07.605Z,6240
2017-07-03T08:13:07.243Z,6220
2017-07-03T08:14:07.578Z,6232
2017-07-03T08:15:07.207Z,6272
2017-07-03T08:16:07.494Z,6372
2017-07-03T08:17:07.198Z,6536
2017-07-03T08:18:07.178Z,6460
2017-07-03T08:19:07.157Z,7432
2017-07-03T08:20:07.440Z,7172
2017-07-03T08:21:07.132Z,7312
2017-07-03T08:22:07.424Z,7476
2017-07-03T08:23:07.108Z,7428
2017-07-03T08:24:07.421Z,7520
2017-07-03T08:25:07.387Z,8024
2017-07-03T08:26:07.375Z,7952
2017-07-03T08:27:07.051Z,8108
2017-07-03T08:28:07.348Z,7796
2017-07-03T08:29:07.036Z,7844
2017-07-03T08:30:07.325Z,7856
2017-07-03T08:31:07.299Z,7864
2017-07-03T08:32:07.290Z,8036
2017-07-03T08:33:07.304Z,7944
2017-07-03T08:34:07.252Z,7756
2017-07-03T08:35:06.625Z,7940
2017-07-03T08:36:07.213Z,7920
2017-07-03T08:37:07.205Z,7872
2017-07-03T08:38:06.893Z,7828
2017-07-03T08:39:06.885Z,8080
2017-07-03T08:40:06.850Z,7788
2017-07-03T08:41:06.883Z,7836
2017-07-03T08:42:06.531Z,8032
2017-07-03T08:43:07.120Z,7928
2017-07-03T08:44:07.126Z,7908
2017-07-03T08:45:06.830Z,7988
2017-07-03T08:46:07.091Z,7900
2017-07-03T08:47:06.776Z,7684
2017-07-03T08:48:06.791Z,7844
2017-07-03T08:49:06.512Z,7732
2017-07-03T08:50:07.056Z,7800
2017-07-03T08:51:06.481Z,7628
2017-07-03T08:52:07.066Z,7496
2017-07-03T08:53:06.441Z,7484
2017-07-03T08:54:06.700Z,7484
2017-07-03T08:55:06.970Z,7412
2017-07-03T08:56:06.974Z,7368
2017-07-03T08:57:06.959Z,7352
2017-07-03T08:58:06.955Z,7364
2017-07-03T08:59:06.942Z,7404
2017-07-03T09:00:06.614Z,7288
2017-07-03T09:01:06.597Z,7292
2017-07-03T09:02:06.351Z,7260
2017-07-03T09:03:06.969Z,7332
2017-07-03T09:04:06.879Z,7356
2017-07-03T09:05:06.961Z,7512
2017-07-03T09:06:06.535Z,7400
2017-07-03T09:07:06.849Z,7420
2017-07-03T09:08:06.212Z,7468
2017-07-03T09:09:06.634Z,7668
2017-07-03T09:10:06.807Z,7904
2017-07-03T09:11:06.490Z,8108
2017-07-03T09:12:06.903Z,8268
2017-07-03T09:13:06.776Z,8588
2017-07-03T09:14:06.437Z,9008
2017-07-03T09:15:06.730Z,10912
2017-07-03T09:16:06.729Z,16992
2017-07-03T09:17:06.105Z,24160
2017-07-03T09:18:06.395Z,33248
2017-07-03T09:19:06.741Z,40608
2017-07-03T09:20:06.794Z,53792
2017-07-03T09:21:06.359Z,61216
2017-07-03T09:22:06.397Z,64672
2017-07-03T09:23:06.029Z,71168
2017-07-03T09:24:06.683Z,70368
2017-07-03T09:25:06.395Z,74944
2017-07-03T09:26:06.308Z,77216
2017-07-03T09:27:06.308Z,74336
2017-07-03T09:28:06.283Z,75232
2017-07-03T09:29:06.652Z,75104
2017-07-03T09:30:05.977Z,75584
2017-07-03T09:31:06.556Z,76160
2017-07-03T09:32:06.255Z,65760
2017-07-03T09:33:06.473Z,75456
2017-07-03T09:34:06.536Z,73856
2017-07-03T09:35:05.939Z,70944
2017-07-03T09:36:05.895Z,70432
2017-07-03T09:37:05.887Z,69312
2017-07-03T09:38:06.190Z,73792
2017-07-03T09:39:06.290Z,74048
2017-07-03T09:40:06.498Z,72736
2017-07-03T09:41:05.553Z,68544
2017-07-03T09:42:05.858Z,69056
2017-07-03T09:43:06.256Z,68576
2017-07-03T09:44:06.138Z,61728
2017-07-03T09:45:06.049Z,63968
2017-07-03T09:46:06.120Z,67904
2017-07-03T09:47:05.815Z,68736
2017-07-03T09:48:05.857Z,67744
2017-07-03T09:49:06.729Z,65824
2017-07-03T09:50:05.787Z,66272
2017-07-03T09:51:06.403Z,66080
2017-07-03T09:52:06.070Z,62400
2017-07-03T09:53:06.112Z,64256
2017-07-03T09:54:06.111Z,64000
2017-07-03T09:55:06.069Z,61440
2017-07-03T09:56:06.053Z,65728
2017-07-03T09:57:06.087Z,56576
2017-07-03T09:58:06.050Z,54880
2017-07-03T09:59:06.119Z,52736
2017-07-03T10:00:05.718Z,58848
2017-07-03T10:01:06.028Z,63200
2017-07-03T10:02:06.374Z,58080
2017-07-03T10:03:06.019Z,52512
2017-07-03T10:04:06.056Z,57088
2017-07-03T10:05:06.039Z,57120
2017-07-03T10:06:06.311Z,55168
2017-07-03T10:07:05.989Z,53408
2017-07-03T10:08:05.970Z,49984
2017-07-03T10:09:05.668Z,52384
2017-07-03T10:10:06.313Z,51968
2017-07-03T10:11:05.959Z,52352
2017-07-03T10:12:05.633Z,51008
2017-07-03T10:13:06.311Z,51328
2017-07-03T10:14:06.248Z,51360
2017-07-03T10:15:05.930Z,49504
2017-07-03T10:16:06.280Z,43232
2017-07-03T10:17:06.219Z,42912
2017-07-03T10:18:06.218Z,44704
2017-07-03T10:19:05.890Z,49472
2017-07-03T10:20:05.890Z,47456
2017-07-03T10:21:05.868Z,42528
2017-07-03T10:22:06.191Z,42464
2017-07-03T10:23:05.995Z,40544
2017-07-03T10:24:06.160Z,40320
2017-07-03T10:25:05.859Z,43264
2017-07-03T10:26:06.152Z,42784
2017-07-03T10:27:05.851Z,41216
2017-07-03T10:28:06.128Z,42336
2017-07-03T10:29:06.126Z,41632
2017-07-03T10:30:06.128Z,29888
2017-07-03T10:31:05.816Z,15092
2017-07-03T10:32:05.816Z,8076
2017-07-03T10:33:05.496Z,7688
2017-07-03T10:34:06.097Z,7760
2017-07-03T10:35:05.465Z,8088
2017-07-03T10:36:06.110Z,8504
2017-07-03T10:37:05.777Z,8484
2017-07-03T10:38:05.442Z,8572
2017-07-03T10:39:06.056Z,8208
2017-07-03T10:40:05.418Z,7748
2017-07-03T10:41:05.786Z,8364
2017-07-03T10:42:06.035Z,7768
2017-07-03T10:43:05.423Z,6952
2017-07-03T10:44:05.710Z,7112
2017-07-03T10:45:06.019Z,6968
2017-07-03T10:46:05.391Z,6864
2017-07-03T10:47:06.006Z,6824
2017-07-03T10:48:05.388Z,6704
2017-07-03T10:49:05.976Z,6652
2017-07-03T10:50:05.653Z,6484
2017-07-03T10:51:05.639Z,6668
2017-07-03T10:52:05.990Z,6500
2017-07-03T10:53:05.930Z,6472
2017-07-03T10:54:05.971Z,6336
2017-07-03T10:55:05.618Z,6332
2017-07-03T10:56:05.860Z,6372
2017-07-03T10:57:05.273Z,6380
2017-07-03T10:58:05.271Z,6344
2017-07-03T10:59:05.902Z,6316
2017-07-03T11:00:06.126Z,6360
2017-07-03T11:01:06.089Z,6372
2017-07-03T11:02:05.241Z,6368
2017-07-03T11:03:05.839Z,6332
2017-07-03T11:04:05.528Z,6232
2017-07-03T11:05:05.525Z,6292
2017-07-03T11:06:05.809Z,6264
2017-07-03T11:07:05.548Z,6276
2017-07-03T11:08:05.519Z,6268
2017-07-03T11:09:05.487Z,6252
2017-07-03T11:10:05.768Z,6264
2017-07-03T11:11:05.468Z,6268
2017-07-03T11:12:05.461Z,6280
2017-07-03T11:13:05.460Z,6276
2017-07-03T11:14:05.496Z,6368
2017-07-03T11:15:05.725Z,6528
2017-07-03T11:16:05.473Z,6568
2017-07-03T11:17:05.108Z,6592
2017-07-03T11:18:05.399Z,6628
2017-07-03T11:19:05.077Z,6624
2017-07-03T11:20:05.366Z,6712
2017-07-03T11:21:05.661Z,6624
2017-07-03T11:22:05.052Z,6688
2017-07-03T11:23:05.342Z,6556
2017-07-03T11:24:05.328Z,6832
2017-07-03T11:25:05.580Z,6764
2017-07-03T11:26:05.028Z,5840
2017-07-03T11:27:04.998Z,6680
2017-07-03T11:28:05.377Z,6748
2017-07-03T11:29:04.975Z,6868
2017-07-03T11:30:05.680Z,6960
2017-07-03T11:31:05.587Z,6920
2017-07-03T11:32:05.347Z,6784
2017-07-03T11:33:05.009Z,6752
2017-07-03T11:34:05.549Z,6764
2017-07-03T11:35:05.225Z,6816
2017-07-03T11:36:05.252Z,6660
2017-07-03T11:37:05.220Z,6632
2017-07-03T11:38:04.958Z,6636
2017-07-03T11:39:04.893Z,6516
2017-07-03T11:40:04.948Z,6644
2017-07-03T11:41:05.184Z,6688
2017-07-03T11:42:05.463Z,6772
2017-07-03T11:43:05.169Z,6732
2017-07-03T11:44:04.892Z,6676
2017-07-03T11:45:05.149Z,6540
2017-07-03T11:46:05.438Z,6496
2017-07-03T11:47:04.819Z,6512
2017-07-03T11:48:05.125Z,6480
2017-07-03T11:49:05.412Z,6780
2017-07-03T11:50:05.413Z,6892
2017-07-03T11:51:05.081Z,7212
2017-07-03T11:52:05.088Z,7660
2017-07-03T11:53:05.068Z,7304
2017-07-03T11:54:05.067Z,7184
2017-07-03T11:55:05.161Z,6924
2017-07-03T11:56:05.347Z,7152
2017-07-03T11:57:05.051Z,7100
2017-07-03T11:58:05.019Z,7240
2017-07-03T11:59:05.035Z,7336
2017-07-03T12:00:04.998Z,7240
2017-07-03T12:01:04.759Z,7124
2017-07-03T12:02:05.037Z,7240
2017-07-03T12:03:04.976Z,7148
2017-07-03T12:04:04.680Z,6940
2017-07-03T12:05:04.971Z,7020
2017-07-03T12:06:05.252Z,6884
2017-07-03T12:07:04.934Z,6856
2017-07-03T12:08:05.258Z,6696
2017-07-03T12:09:05.229Z,6780
2017-07-03T12:10:05.231Z,6972
2017-07-03T12:11:04.997Z,7088
2017-07-03T12:12:04.908Z,7292
2017-07-03T12:13:04.900Z,7188
2017-07-03T12:14:04.940Z,7140
2017-07-03T12:15:05.238Z,6736
2017-07-03T12:16:04.889Z,6864
2017-07-03T12:17:05.155Z,7356
2017-07-03T12:18:05.220Z,7564
2017-07-03T12:19:04.907Z,7768
2017-07-03T12:20:04.883Z,7344
2017-07-03T12:21:04.861Z,7852
2017-07-03T12:22:05.150Z,8116
2017-07-03T12:23:05.101Z,7924
2017-07-03T12:24:04.820Z,7360
2017-07-03T12:25:05.102Z,7280
2017-07-03T12:26:04.829Z,5656
2017-07-03T12:27:04.769Z,6440
2017-07-03T12:28:04.773Z,6084
2017-07-03T12:29:05.255Z,6172
2017-07-03T12:30:04.487Z,6748
2017-07-03T12:31:05.040Z,6540
2017-07-03T12:32:04.709Z,7512
2017-07-03T12:33:04.723Z,7856
2017-07-03T12:34:04.405Z,8496
2017-07-03T12:35:05.001Z,8656
2017-07-03T12:36:04.990Z,8384
2017-07-03T12:37:04.406Z,8512
2017-07-03T12:38:04.971Z,8504
2017-07-03T12:39:04.970Z,8344
2017-07-03T12:40:04.636Z,8164
2017-07-03T12:41:04.951Z,8160
2017-07-03T12:42:04.630Z,8084
2017-07-03T12:43:04.629Z,7504
2017-07-03T12:44:04.922Z,8644
2017-07-03T12:45:04.930Z,7900
2017-07-03T12:46:04.601Z,8360
2017-07-03T12:47:04.893Z,6440
2017-07-03T12:48:04.266Z,6224
2017-07-03T12:49:04.571Z,5644
2017-07-03T12:50:04.320Z,5476
2017-07-03T12:51:04.560Z,5612
2017-07-03T12:52:05.072Z,6156
2017-07-03T12:53:04.852Z,6788
2017-07-03T12:54:04.841Z,7524
2017-07-03T12:55:04.210Z,8076
2017-07-03T12:56:04.822Z,8156
2017-07-03T12:57:04.820Z,8216
2017-07-03T12:58:04.501Z,8008
2017-07-03T12:59:04.489Z,7840
2017-07-03T13:00:04.908Z,7976
2017-07-03T13:01:04.468Z,7796
2017-07-03T13:02:04.822Z,7644
2017-07-03T13:03:04.128Z,8336
2017-07-03T13:04:04.891Z,7332
2017-07-03T13:05:04.488Z,7232
2017-07-03T13:06:04.799Z,7364
2017-07-03T13:07:04.108Z,7484
2017-07-03T13:08:04.441Z,7640
2017-07-03T13:09:04.799Z,7796
2017-07-03T13:10:04.386Z,7920
2017-07-03T13:11:04.418Z,8000
2017-07-03T13:12:04.064Z,8140
2017-07-03T13:13:04.351Z,8352
2017-07-03T13:14:04.339Z,8400
2017-07-03T13:15:04.387Z,8336
2017-07-03T13:16:04.309Z,8096
2017-07-03T13:17:04.303Z,7924
2017-07-03T13:18:04.117Z,7972
2017-07-03T13:19:04.292Z,7572
2017-07-03T13:20:03.969Z,7340
2017-07-03T13:21:03.968Z,7264
2017-07-03T13:22:04.559Z,7200
2017-07-03T13:23:04.554Z,7076
2017-07-03T13:24:04.230Z,6980
2017-07-03T13:25:04.224Z,6940
2017-07-03T13:26:04.259Z,6888
2017-07-03T13:27:03.912Z,6796
2017-07-03T13:28:04.198Z,6788
2017-07-03T13:29:04.501Z,6820
2017-07-03T13:30:04.189Z,6932
2017-07-03T13:31:04.488Z,6932
2017-07-03T13:32:03.903Z,6920
2017-07-03T13:33:04.478Z,6920
2017-07-03T13:34:04.147Z,6964
2017-07-03T13:35:03.835Z,6976
2017-07-03T13:36:04.498Z,7080